sensor_id;sensor_type;location;lat;lon;timestamp;P1;durP1;ratioP1;P2;durP2;ratioP2
42690;SDS011;28306;55.744;37.578;2022-08-07T00:00:18;5.93;;;4.10;;
42690;SDS011;28306;55.744;37.578;2022-08-07T00:02:43;7.50;;;4.40;;
42690;SDS011;28306;55.744;37.578;2022-08-07T00:05:09;5.85;;;3.80;;
42690;SDS011;28306;55.744;37.578;2022-08-07T00:07:35;7.55;;;4.50;;
42690;SDS011;28306;55.744;37.578;2022-08-07T00:10:01;4.82;;;4.05;;
42690;SDS011;28306;55.744;37.578;2022-08-07T00:12:26;5.82;;;4.35;;
42690;SDS011;28306;55.744;37.578;2022-08-07T00:14:52;4.47;;;3.90;;
42690;SDS011;28306;55.744;37.578;2022-08-07T00:17:18;5.75;;;3.95;;
42690;SDS011;28306;55.744;37.578;2022-08-07T00:19:43;5.80;;;4.07;;
42690;SDS011;28306;55.744;37.578;2022-08-07T00:22:10;4.82;;;3.78;;
42690;SDS011;28306;55.744;37.578;2022-08-07T00:24:36;5.63;;;3.85;;
42690;SDS011;28306;55.744;37.578;2022-08-07T00:27:02;5.70;;;4.25;;
42690;SDS011;28306;55.744;37.578;2022-08-07T00:29:28;4.80;;;3.92;;
42690;SDS011;28306;55.744;37.578;2022-08-07T00:31:54;4.38;;;3.47;;
42690;SDS011;28306;55.744;37.578;2022-08-07T00:34:26;7.85;;;3.88;;
42690;SDS011;28306;55.744;37.578;2022-08-07T00:36:53;9.70;;;4.18;;
42690;SDS011;28306;55.744;37.578;2022-08-07T00:39:19;7.68;;;4.00;;
42690;SDS011;28306;55.744;37.578;2022-08-07T00:41:52;5.28;;;3.58;;
42690;SDS011;28306;55.744;37.578;2022-08-07T00:44:19;8.27;;;4.28;;
42690;SDS011;28306;55.744;37.578;2022-08-07T00:46:45;4.25;;;3.60;;
42690;SDS011;28306;55.744;37.578;2022-08-07T00:49:11;5.95;;;3.88;;
42690;SDS011;28306;55.744;37.578;2022-08-07T00:51:37;4.28;;;3.67;;
42690;SDS011;28306;55.744;37.578;2022-08-07T00:54:03;5.55;;;4.15;;
42690;SDS011;28306;55.744;37.578;2022-08-07T00:56:29;7.00;;;3.83;;
42690;SDS011;28306;55.744;37.578;2022-08-07T00:58:55;6.63;;;3.90;;
42690;SDS011;28306;55.744;37.578;2022-08-07T01:01:21;4.10;;;3.50;;
42690;SDS011;28306;55.744;37.578;2022-08-07T01:03:48;6.10;;;3.83;;
42690;SDS011;28306;55.744;37.578;2022-08-07T01:06:16;3.63;;;3.08;;
42690;SDS011;28306;55.744;37.578;2022-08-07T01:08:43;4.22;;;3.72;;
42690;SDS011;28306;55.744;37.578;2022-08-07T01:11:10;5.88;;;3.50;;
42690;SDS011;28306;55.744;37.578;2022-08-07T01:13:37;8.05;;;3.53;;
42690;SDS011;28306;55.744;37.578;2022-08-07T01:16:04;4.53;;;3.47;;
42690;SDS011;28306;55.744;37.578;2022-08-07T01:18:31;8.30;;;4.03;;
42690;SDS011;28306;55.744;37.578;2022-08-07T01:21:03;4.57;;;3.58;;
42690;SDS011;28306;55.744;37.578;2022-08-07T01:23:30;4.13;;;3.42;;
42690;SDS011;28306;55.744;37.578;2022-08-07T01:25:57;4.38;;;3.45;;
42690;SDS011;28306;55.744;37.578;2022-08-07T01:28:23;5.90;;;3.38;;
42690;SDS011;28306;55.744;37.578;2022-08-07T01:30:52;4.18;;;3.10;;
42690;SDS011;28306;55.744;37.578;2022-08-07T01:33:19;4.30;;;3.33;;
42690;SDS011;28306;55.744;37.578;2022-08-07T01:35:45;6.22;;;3.65;;
42690;SDS011;28306;55.744;37.578;2022-08-07T01:38:12;4.53;;;3.20;;
42690;SDS011;28306;55.744;37.578;2022-08-07T01:40:38;5.80;;;3.78;;
42690;SDS011;28306;55.744;37.578;2022-08-07T01:43:05;5.95;;;3.67;;
42690;SDS011;28306;55.744;37.578;2022-08-07T01:45:31;4.90;;;3.58;;
42690;SDS011;28306;55.744;37.578;2022-08-07T01:48:00;5.30;;;4.07;;
42690;SDS011;28306;55.744;37.578;2022-08-07T01:50:27;6.60;;;3.58;;
42690;SDS011;28306;55.744;37.578;2022-08-07T01:52:56;7.60;;;3.90;;
42690;SDS011;28306;55.744;37.578;2022-08-07T01:55:24;4.88;;;3.40;;
42690;SDS011;28306;55.744;37.578;2022-08-07T01:57:54;5.70;;;3.15;;
42690;SDS011;28306;55.744;37.578;2022-08-07T02:00:23;5.72;;;3.30;;
42690;SDS011;28306;55.744;37.578;2022-08-07T02:03:01;5.15;;;3.45;;
42690;SDS011;28306;55.744;37.578;2022-08-07T02:05:33;8.25;;;3.58;;
42690;SDS011;28306;55.744;37.578;2022-08-07T02:08:23;5.35;;;3.47;;
42690;SDS011;28306;55.744;37.578;2022-08-07T02:10:51;5.40;;;3.38;;
42690;SDS011;28306;55.744;37.578;2022-08-07T02:13:22;7.45;;;3.38;;
42690;SDS011;28306;55.744;37.578;2022-08-07T02:15:52;4.65;;;3.80;;
42690;SDS011;28306;55.744;37.578;2022-08-07T02:18:20;4.60;;;3.78;;
42690;SDS011;28306;55.744;37.578;2022-08-07T02:20:47;6.72;;;3.63;;
42690;SDS011;28306;55.744;37.578;2022-08-07T02:23:16;6.22;;;3.67;;
42690;SDS011;28306;55.744;37.578;2022-08-07T02:25:43;7.93;;;4.10;;
42690;SDS011;28306;55.744;37.578;2022-08-07T02:28:13;7.50;;;4.22;;
42690;SDS011;28306;55.744;37.578;2022-08-07T02:30:40;8.07;;;3.60;;
42690;SDS011;28306;55.744;37.578;2022-08-07T02:33:07;6.07;;;3.38;;
42690;SDS011;28306;55.744;37.578;2022-08-07T02:35:35;7.35;;;3.83;;
42690;SDS011;28306;55.744;37.578;2022-08-07T02:38:03;5.78;;;3.90;;
42690;SDS011;28306;55.744;37.578;2022-08-07T02:40:34;6.40;;;3.80;;
42690;SDS011;28306;55.744;37.578;2022-08-07T02:43:03;6.38;;;3.60;;
42690;SDS011;28306;55.744;37.578;2022-08-07T02:45:30;6.15;;;3.92;;
42690;SDS011;28306;55.744;37.578;2022-08-07T02:47:58;4.72;;;3.42;;
42690;SDS011;28306;55.744;37.578;2022-08-07T02:50:24;4.50;;;3.72;;
42690;SDS011;28306;55.744;37.578;2022-08-07T02:52:52;6.93;;;4.20;;
42690;SDS011;28306;55.744;37.578;2022-08-07T02:55:21;6.57;;;3.60;;
42690;SDS011;28306;55.744;37.578;2022-08-07T02:57:49;9.32;;;3.83;;
42690;SDS011;28306;55.744;37.578;2022-08-07T03:00:18;6.65;;;4.13;;
42690;SDS011;28306;55.744;37.578;2022-08-07T03:02:45;4.82;;;3.72;;
42690;SDS011;28306;55.744;37.578;2022-08-07T03:05:14;7.70;;;4.10;;
42690;SDS011;28306;55.744;37.578;2022-08-07T03:07:41;7.65;;;4.00;;
42690;SDS011;28306;55.744;37.578;2022-08-07T03:10:10;4.93;;;3.97;;
42690;SDS011;28306;55.744;37.578;2022-08-07T03:12:36;6.25;;;3.95;;
42690;SDS011;28306;55.744;37.578;2022-08-07T03:15:08;6.93;;;4.20;;
42690;SDS011;28306;55.744;37.578;2022-08-07T03:17:34;7.65;;;3.78;;
42690;SDS011;28306;55.744;37.578;2022-08-07T03:20:04;7.55;;;3.78;;
42690;SDS011;28306;55.744;37.578;2022-08-07T03:22:32;6.15;;;3.90;;
42690;SDS011;28306;55.744;37.578;2022-08-07T03:24:59;7.18;;;4.53;;
42690;SDS011;28306;55.744;37.578;2022-08-07T03:27:29;6.20;;;4.10;;
42690;SDS011;28306;55.744;37.578;2022-08-07T03:29:55;8.00;;;3.60;;
42690;SDS011;28306;55.744;37.578;2022-08-07T03:32:35;7.38;;;4.20;;
42690;SDS011;28306;55.744;37.578;2022-08-07T03:35:05;9.18;;;4.30;;
42690;SDS011;28306;55.744;37.578;2022-08-07T03:37:35;6.53;;;4.22;;
42690;SDS011;28306;55.744;37.578;2022-08-07T03:40:03;6.43;;;4.32;;
42690;SDS011;28306;55.744;37.578;2022-08-07T03:42:32;9.23;;;4.35;;
42690;SDS011;28306;55.744;37.578;2022-08-07T03:45:01;6.97;;;4.20;;
42690;SDS011;28306;55.744;37.578;2022-08-07T03:47:28;6.32;;;3.85;;
42690;SDS011;28306;55.744;37.578;2022-08-07T03:49:55;5.40;;;3.90;;
42690;SDS011;28306;55.744;37.578;2022-08-07T03:52:24;7.15;;;4.40;;
42690;SDS011;28306;55.744;37.578;2022-08-07T03:54:59;6.53;;;3.75;;
42690;SDS011;28306;55.744;37.578;2022-08-07T03:57:26;5.78;;;3.70;;
42690;SDS011;28306;55.744;37.578;2022-08-07T03:59:53;6.63;;;4.45;;
42690;SDS011;28306;55.744;37.578;2022-08-07T04:02:19;7.60;;;4.07;;
42690;SDS011;28306;55.744;37.578;2022-08-07T04:04:46;6.35;;;4.15;;
42690;SDS011;28306;55.744;37.578;2022-08-07T04:07:14;8.68;;;4.22;;
42690;SDS011;28306;55.744;37.578;2022-08-07T04:09:41;5.55;;;3.65;;
42690;SDS011;28306;55.744;37.578;2022-08-07T04:12:08;6.03;;;3.92;;
42690;SDS011;28306;55.744;37.578;2022-08-07T04:14:36;6.18;;;3.95;;
42690;SDS011;28306;55.744;37.578;2022-08-07T04:17:03;6.00;;;4.43;;
42690;SDS011;28306;55.744;37.578;2022-08-07T04:19:29;8.57;;;3.63;;
42690;SDS011;28306;55.744;37.578;2022-08-07T04:21:55;5.00;;;3.65;;
42690;SDS011;28306;55.744;37.578;2022-08-07T04:24:21;5.47;;;3.53;;
42690;SDS011;28306;55.744;37.578;2022-08-07T04:26:47;8.07;;;3.42;;
42690;SDS011;28306;55.744;37.578;2022-08-07T04:29:13;5.55;;;3.85;;
42690;SDS011;28306;55.744;37.578;2022-08-07T04:31:39;4.57;;;3.35;;
42690;SDS011;28306;55.744;37.578;2022-08-07T04:34:06;7.63;;;3.78;;
42690;SDS011;28306;55.744;37.578;2022-08-07T04:36:34;6.13;;;3.35;;
42690;SDS011;28306;55.744;37.578;2022-08-07T04:39:01;4.18;;;3.42;;
42690;SDS011;28306;55.744;37.578;2022-08-07T04:41:29;5.57;;;3.63;;
42690;SDS011;28306;55.744;37.578;2022-08-07T04:43:55;6.97;;;3.60;;
42690;SDS011;28306;55.744;37.578;2022-08-07T04:51:40;4.80;;;3.30;;
42690;SDS011;28306;55.744;37.578;2022-08-07T05:05:09;5.82;;;3.63;;
42690;SDS011;28306;55.744;37.578;2022-08-07T05:07:45;5.28;;;3.58;;
42690;SDS011;28306;55.744;37.578;2022-08-07T05:10:21;7.03;;;3.33;;
42690;SDS011;28306;55.744;37.578;2022-08-07T05:12:53;7.47;;;3.40;;
42690;SDS011;28306;55.744;37.578;2022-08-07T05:15:29;6.20;;;3.35;;
42690;SDS011;28306;55.744;37.578;2022-08-07T05:18:01;7.45;;;3.35;;
42690;SDS011;28306;55.744;37.578;2022-08-07T05:20:31;6.13;;;3.55;;
42690;SDS011;28306;55.744;37.578;2022-08-07T05:25:36;5.22;;;3.50;;
42690;SDS011;28306;55.744;37.578;2022-08-07T05:28:05;7.80;;;3.67;;
42690;SDS011;28306;55.744;37.578;2022-08-07T05:30:32;5.10;;;3.10;;
42690;SDS011;28306;55.744;37.578;2022-08-07T05:33:02;6.00;;;3.45;;
42690;SDS011;28306;55.744;37.578;2022-08-07T05:35:32;6.75;;;3.80;;
42690;SDS011;28306;55.744;37.578;2022-08-07T05:38:01;4.53;;;3.03;;
42690;SDS011;28306;55.744;37.578;2022-08-07T05:40:31;7.57;;;3.15;;
42690;SDS011;28306;55.744;37.578;2022-08-07T05:43:01;6.13;;;3.40;;
42690;SDS011;28306;55.744;37.578;2022-08-07T05:45:27;4.43;;;2.85;;
42690;SDS011;28306;55.744;37.578;2022-08-07T05:47:58;4.10;;;3.05;;
42690;SDS011;28306;55.744;37.578;2022-08-07T05:50:26;4.72;;;2.88;;
42690;SDS011;28306;55.744;37.578;2022-08-07T05:52:53;5.05;;;2.78;;
42690;SDS011;28306;55.744;37.578;2022-08-07T05:55:18;7.18;;;2.90;;
42690;SDS011;28306;55.744;37.578;2022-08-07T05:57:44;5.47;;;3.03;;
42690;SDS011;28306;55.744;37.578;2022-08-07T06:00:13;4.13;;;2.63;;
42690;SDS011;28306;55.744;37.578;2022-08-07T06:02:47;5.32;;;2.75;;
42690;SDS011;28306;55.744;37.578;2022-08-07T06:05:14;4.47;;;2.85;;
42690;SDS011;28306;55.744;37.578;2022-08-07T06:07:41;4.05;;;3.00;;
42690;SDS011;28306;55.744;37.578;2022-08-07T06:10:09;5.38;;;3.33;;
42690;SDS011;28306;55.744;37.578;2022-08-07T06:12:35;4.30;;;2.72;;
42690;SDS011;28306;55.744;37.578;2022-08-07T06:15:02;6.38;;;3.22;;
42690;SDS011;28306;55.744;37.578;2022-08-07T06:17:29;7.10;;;2.90;;
42690;SDS011;28306;55.744;37.578;2022-08-07T06:19:57;4.20;;;2.97;;
42690;SDS011;28306;55.744;37.578;2022-08-07T06:22:24;4.88;;;2.88;;
42690;SDS011;28306;55.744;37.578;2022-08-07T06:24:58;5.20;;;3.05;;
42690;SDS011;28306;55.744;37.578;2022-08-07T06:27:24;5.20;;;3.05;;
42690;SDS011;28306;55.744;37.578;2022-08-07T06:29:51;5.88;;;2.72;;
42690;SDS011;28306;55.744;37.578;2022-08-07T06:32:18;5.30;;;3.33;;
42690;SDS011;28306;55.744;37.578;2022-08-07T06:34:43;4.40;;;2.83;;
42690;SDS011;28306;55.744;37.578;2022-08-07T06:37:09;4.13;;;2.67;;
42690;SDS011;28306;55.744;37.578;2022-08-07T06:39:37;5.18;;;2.90;;
42690;SDS011;28306;55.744;37.578;2022-08-07T06:42:05;5.22;;;2.85;;
42690;SDS011;28306;55.744;37.578;2022-08-07T06:45:09;7.88;;;3.17;;
42690;SDS011;28306;55.744;37.578;2022-08-07T06:47:40;6.28;;;2.90;;
42690;SDS011;28306;55.744;37.578;2022-08-07T06:50:06;6.57;;;2.72;;
42690;SDS011;28306;55.744;37.578;2022-08-07T06:52:36;3.60;;;2.92;;
42690;SDS011;28306;55.744;37.578;2022-08-07T06:55:13;5.93;;;2.90;;
42690;SDS011;28306;55.744;37.578;2022-08-07T06:57:42;4.30;;;2.92;;
42690;SDS011;28306;55.744;37.578;2022-08-07T07:00:10;7.18;;;3.03;;
42690;SDS011;28306;55.744;37.578;2022-08-07T07:02:37;4.53;;;3.00;;
42690;SDS011;28306;55.744;37.578;2022-08-07T07:05:03;5.28;;;3.10;;
42690;SDS011;28306;55.744;37.578;2022-08-07T07:07:30;4.65;;;3.20;;
42690;SDS011;28306;55.744;37.578;2022-08-07T07:09:56;5.85;;;3.08;;
42690;SDS011;28306;55.744;37.578;2022-08-07T07:15:22;5.72;;;3.53;;
42690;SDS011;28306;55.744;37.578;2022-08-07T07:20:29;5.82;;;3.10;;
42690;SDS011;28306;55.744;37.578;2022-08-07T07:22:59;6.63;;;3.25;;
42690;SDS011;28306;55.744;37.578;2022-08-07T07:25:25;5.85;;;3.28;;
42690;SDS011;28306;55.744;37.578;2022-08-07T07:30:21;7.13;;;3.03;;
42690;SDS011;28306;55.744;37.578;2022-08-07T07:32:50;4.25;;;3.15;;
42690;SDS011;28306;55.744;37.578;2022-08-07T07:35:19;6.82;;;2.80;;
42690;SDS011;28306;55.744;37.578;2022-08-07T07:37:46;9.27;;;3.55;;
42690;SDS011;28306;55.744;37.578;2022-08-07T07:40:15;4.95;;;3.28;;
42690;SDS011;28306;55.744;37.578;2022-08-07T07:42:44;7.18;;;3.42;;
42690;SDS011;28306;55.744;37.578;2022-08-07T07:45:12;6.85;;;3.78;;
42690;SDS011;28306;55.744;37.578;2022-08-07T07:47:41;7.93;;;4.05;;
42690;SDS011;28306;55.744;37.578;2022-08-07T07:50:09;6.10;;;3.40;;
42690;SDS011;28306;55.744;37.578;2022-08-07T07:52:37;10.52;;;3.00;;
42690;SDS011;28306;55.744;37.578;2022-08-07T07:55:05;7.10;;;3.20;;
42690;SDS011;28306;55.744;37.578;2022-08-07T07:57:33;8.27;;;3.60;;
42690;SDS011;28306;55.744;37.578;2022-08-07T08:00:00;9.05;;;3.53;;
42690;SDS011;28306;55.744;37.578;2022-08-07T08:02:37;7.68;;;3.15;;
42690;SDS011;28306;55.744;37.578;2022-08-07T08:05:06;5.00;;;3.35;;
42690;SDS011;28306;55.744;37.578;2022-08-07T08:07:33;6.90;;;3.58;;
42690;SDS011;28306;55.744;37.578;2022-08-07T08:10:02;6.90;;;3.60;;
42690;SDS011;28306;55.744;37.578;2022-08-07T08:12:29;4.90;;;3.35;;
42690;SDS011;28306;55.744;37.578;2022-08-07T08:14:57;7.68;;;3.42;;
42690;SDS011;28306;55.744;37.578;2022-08-07T08:17:22;6.47;;;3.40;;
42690;SDS011;28306;55.744;37.578;2022-08-07T08:19:50;6.82;;;3.13;;
42690;SDS011;28306;55.744;37.578;2022-08-07T08:22:19;8.15;;;3.22;;
42690;SDS011;28306;55.744;37.578;2022-08-07T08:25:04;9.35;;;3.92;;
42690;SDS011;28306;55.744;37.578;2022-08-07T08:27:50;5.20;;;3.30;;
42690;SDS011;28306;55.744;37.578;2022-08-07T08:30:18;7.88;;;3.53;;
42690;SDS011;28306;55.744;37.578;2022-08-07T08:32:55;10.05;;;3.40;;
42690;SDS011;28306;55.744;37.578;2022-08-07T08:35:25;5.93;;;3.33;;
42690;SDS011;28306;55.744;37.578;2022-08-07T08:37:55;5.57;;;3.25;;
42690;SDS011;28306;55.744;37.578;2022-08-07T08:40:29;7.85;;;3.60;;
42690;SDS011;28306;55.744;37.578;2022-08-07T08:43:06;6.63;;;3.33;;
42690;SDS011;28306;55.744;37.578;2022-08-07T08:45:51;6.70;;;3.60;;
42690;SDS011;28306;55.744;37.578;2022-08-07T08:54:10;7.30;;;3.83;;
42690;SDS011;28306;55.744;37.578;2022-08-07T08:56:58;6.07;;;3.30;;
42690;SDS011;28306;55.744;37.578;2022-08-07T09:07:18;5.40;;;3.70;;
42690;SDS011;28306;55.744;37.578;2022-08-07T09:10:08;8.38;;;3.75;;
42690;SDS011;28306;55.744;37.578;2022-08-07T09:12:45;5.93;;;3.53;;
42690;SDS011;28306;55.744;37.578;2022-08-07T09:29:25;4.75;;;3.40;;
42690;SDS011;28306;55.744;37.578;2022-08-07T09:34:57;4.47;;;2.90;;
42690;SDS011;28306;55.744;37.578;2022-08-07T09:40:14;5.78;;;2.78;;
42690;SDS011;28306;55.744;37.578;2022-08-07T09:43:18;7.78;;;2.75;;
42690;SDS011;28306;55.744;37.578;2022-08-07T09:46:19;6.43;;;2.45;;
42690;SDS011;28306;55.744;37.578;2022-08-07T09:51:59;5.95;;;2.55;;
42690;SDS011;28306;55.744;37.578;2022-08-07T10:00:17;6.55;;;2.72;;
42690;SDS011;28306;55.744;37.578;2022-08-07T10:21:48;9.48;;;2.63;;
42690;SDS011;28306;55.744;37.578;2022-08-07T10:30:16;4.50;;;2.30;;
42690;SDS011;28306;55.744;37.578;2022-08-07T10:36:00;5.03;;;2.38;;
42690;SDS011;28306;55.744;37.578;2022-08-07T10:38:49;3.17;;;2.40;;
42690;SDS011;28306;55.744;37.578;2022-08-07T10:41:30;5.97;;;2.83;;
42690;SDS011;28306;55.744;37.578;2022-08-07T10:44:01;3.42;;;2.38;;
42690;SDS011;28306;55.744;37.578;2022-08-07T10:46:50;4.00;;;2.92;;
42690;SDS011;28306;55.744;37.578;2022-08-07T10:52:01;7.72;;;3.22;;
42690;SDS011;28306;55.744;37.578;2022-08-07T11:10:51;6.53;;;2.60;;
42690;SDS011;28306;55.744;37.578;2022-08-07T11:13:31;7.22;;;2.83;;
42690;SDS011;28306;55.744;37.578;2022-08-07T11:16:10;6.00;;;2.80;;
42690;SDS011;28306;55.744;37.578;2022-08-07T11:27:06;5.93;;;2.90;;
42690;SDS011;28306;55.744;37.578;2022-08-07T11:29:45;9.03;;;2.70;;
42690;SDS011;28306;55.744;37.578;2022-08-07T11:32:30;5.55;;;2.53;;
42690;SDS011;28306;55.744;37.578;2022-08-07T11:35:22;7.90;;;2.75;;
42690;SDS011;28306;55.744;37.578;2022-08-07T11:38:00;4.05;;;2.55;;
42690;SDS011;28306;55.744;37.578;2022-08-07T11:43:41;12.30;;;3.10;;
42690;SDS011;28306;55.744;37.578;2022-08-07T11:46:35;17.38;;;3.75;;
42690;SDS011;28306;55.744;37.578;2022-08-07T11:52:12;10.00;;;3.78;;
42690;SDS011;28306;55.744;37.578;2022-08-07T11:58:22;7.68;;;3.00;;
42690;SDS011;28306;55.744;37.578;2022-08-07T12:00:57;7.22;;;3.25;;
42690;SDS011;28306;55.744;37.578;2022-08-07T12:03:46;8.15;;;3.00;;
42690;SDS011;28306;55.744;37.578;2022-08-07T12:06:27;12.48;;;3.28;;
42690;SDS011;28306;55.744;37.578;2022-08-07T12:09:36;9.50;;;3.33;;
42690;SDS011;28306;55.744;37.578;2022-08-07T12:12:06;5.05;;;3.05;;
42690;SDS011;28306;55.744;37.578;2022-08-07T12:17:12;4.93;;;2.47;;
42690;SDS011;28306;55.744;37.578;2022-08-07T12:19:58;6.47;;;2.78;;
42690;SDS011;28306;55.744;37.578;2022-08-07T12:28:19;6.50;;;2.60;;
42690;SDS011;28306;55.744;37.578;2022-08-07T12:30:49;4.53;;;2.42;;
42690;SDS011;28306;55.744;37.578;2022-08-07T12:33:20;8.50;;;2.38;;
42690;SDS011;28306;55.744;37.578;2022-08-07T12:35:52;4.43;;;2.47;;
42690;SDS011;28306;55.744;37.578;2022-08-07T12:38:21;5.80;;;2.45;;
42690;SDS011;28306;55.744;37.578;2022-08-07T12:40:48;7.13;;;2.53;;
42690;SDS011;28306;55.744;37.578;2022-08-07T12:43:21;4.10;;;2.30;;
42690;SDS011;28306;55.744;37.578;2022-08-07T12:46:03;5.57;;;2.63;;
42690;SDS011;28306;55.744;37.578;2022-08-07T12:48:52;5.70;;;2.40;;
42690;SDS011;28306;55.744;37.578;2022-08-07T12:51:20;4.43;;;2.17;;
42690;SDS011;28306;55.744;37.578;2022-08-07T12:53:52;3.45;;;2.22;;
42690;SDS011;28306;55.744;37.578;2022-08-07T12:57:01;4.22;;;2.13;;
42690;SDS011;28306;55.744;37.578;2022-08-07T12:59:11;4.22;;;2.55;;
42690;SDS011;28306;55.744;37.578;2022-08-07T13:04:43;5.28;;;2.40;;
42690;SDS011;28306;55.744;37.578;2022-08-07T13:10:16;5.25;;;2.10;;
42690;SDS011;28306;55.744;37.578;2022-08-07T13:12:56;6.68;;;2.40;;
42690;SDS011;28306;55.744;37.578;2022-08-07T13:18:19;3.58;;;1.88;;
42690;SDS011;28306;55.744;37.578;2022-08-07T13:20:55;3.65;;;2.22;;
42690;SDS011;28306;55.744;37.578;2022-08-07T13:23:31;3.42;;;1.80;;
42690;SDS011;28306;55.744;37.578;2022-08-07T13:28:40;3.30;;;1.95;;
42690;SDS011;28306;55.744;37.578;2022-08-07T13:31:29;3.83;;;2.05;;
42690;SDS011;28306;55.744;37.578;2022-08-07T13:34:13;3.53;;;2.08;;
42690;SDS011;28306;55.744;37.578;2022-08-07T13:36:53;5.30;;;2.00;;
42690;SDS011;28306;55.744;37.578;2022-08-07T13:39:34;5.00;;;1.70;;
42690;SDS011;28306;55.744;37.578;2022-08-07T13:42:07;2.35;;;1.80;;
42690;SDS011;28306;55.744;37.578;2022-08-07T13:44:38;7.15;;;2.03;;
42690;SDS011;28306;55.744;37.578;2022-08-07T13:47:05;4.82;;;1.92;;
42690;SDS011;28306;55.744;37.578;2022-08-07T13:49:41;2.78;;;1.85;;
42690;SDS011;28306;55.744;37.578;2022-08-07T13:52:10;2.30;;;1.65;;
42690;SDS011;28306;55.744;37.578;2022-08-07T13:54:37;2.67;;;1.60;;
42690;SDS011;28306;55.744;37.578;2022-08-07T13:57:05;2.45;;;1.88;;
42690;SDS011;28306;55.744;37.578;2022-08-07T13:59:38;2.75;;;1.80;;
42690;SDS011;28306;55.744;37.578;2022-08-07T14:02:09;3.17;;;1.60;;
42690;SDS011;28306;55.744;37.578;2022-08-07T14:07:07;2.33;;;1.65;;
42690;SDS011;28306;55.744;37.578;2022-08-07T14:09:35;2.30;;;1.52;;
42690;SDS011;28306;55.744;37.578;2022-08-07T14:12:04;3.70;;;1.70;;
42690;SDS011;28306;55.744;37.578;2022-08-07T14:14:43;4.28;;;1.70;;
42690;SDS011;28306;55.744;37.578;2022-08-07T14:17:15;2.83;;;1.57;;
42690;SDS011;28306;55.744;37.578;2022-08-07T14:20:31;1.80;;;1.38;;
42690;SDS011;28306;55.744;37.578;2022-08-07T14:22:34;3.67;;;1.60;;
42690;SDS011;28306;55.744;37.578;2022-08-07T14:25:06;3.47;;;1.58;;
42690;SDS011;28306;55.744;37.578;2022-08-07T14:27:37;1.90;;;1.40;;
42690;SDS011;28306;55.744;37.578;2022-08-07T14:30:07;2.67;;;1.40;;
42690;SDS011;28306;55.744;37.578;2022-08-07T14:35:20;3.90;;;1.60;;
42690;SDS011;28306;55.744;37.578;2022-08-07T14:37:49;2.88;;;1.40;;
42690;SDS011;28306;55.744;37.578;2022-08-07T14:40:19;2.13;;;1.33;;
42690;SDS011;28306;55.744;37.578;2022-08-07T14:42:51;2.58;;;1.50;;
42690;SDS011;28306;55.744;37.578;2022-08-07T14:45:31;3.20;;;1.50;;
42690;SDS011;28306;55.744;37.578;2022-08-07T14:48:06;2.47;;;1.67;;
42690;SDS011;28306;55.744;37.578;2022-08-07T14:50:34;2.72;;;1.50;;
42690;SDS011;28306;55.744;37.578;2022-08-07T14:53:06;2.45;;;1.52;;
42690;SDS011;28306;55.744;37.578;2022-08-07T14:55:33;4.25;;;1.30;;
42690;SDS011;28306;55.744;37.578;2022-08-07T14:58:00;2.28;;;1.40;;
42690;SDS011;28306;55.744;37.578;2022-08-07T15:00:29;2.95;;;1.55;;
42690;SDS011;28306;55.744;37.578;2022-08-07T15:03:01;2.67;;;1.63;;
42690;SDS011;28306;55.744;37.578;2022-08-07T15:05:30;3.05;;;1.55;;
42690;SDS011;28306;55.744;37.578;2022-08-07T15:07:57;2.67;;;1.65;;
42690;SDS011;28306;55.744;37.578;2022-08-07T15:10:26;2.55;;;1.45;;
42690;SDS011;28306;55.744;37.578;2022-08-07T15:12:53;3.72;;;1.58;;
42690;SDS011;28306;55.744;37.578;2022-08-07T15:15:24;1.77;;;1.25;;
42690;SDS011;28306;55.744;37.578;2022-08-07T15:17:58;2.58;;;1.45;;
42690;SDS011;28306;55.744;37.578;2022-08-07T15:20:32;2.80;;;1.83;;
42690;SDS011;28306;55.744;37.578;2022-08-07T15:23:14;1.92;;;1.58;;
42690;SDS011;28306;55.744;37.578;2022-08-07T15:25:49;2.90;;;1.60;;
42690;SDS011;28306;55.744;37.578;2022-08-07T15:28:20;2.38;;;1.35;;
42690;SDS011;28306;55.744;37.578;2022-08-07T15:30:48;2.47;;;1.70;;
42690;SDS011;28306;55.744;37.578;2022-08-07T15:33:16;3.53;;;1.50;;
42690;SDS011;28306;55.744;37.578;2022-08-07T15:35:43;2.30;;;1.60;;
42690;SDS011;28306;55.744;37.578;2022-08-07T15:38:17;4.28;;;1.50;;
42690;SDS011;28306;55.744;37.578;2022-08-07T15:40:46;4.60;;;1.52;;
42690;SDS011;28306;55.744;37.578;2022-08-07T15:43:31;1.77;;;1.17;;
42690;SDS011;28306;55.744;37.578;2022-08-07T15:46:14;1.83;;;1.30;;
42690;SDS011;28306;55.744;37.578;2022-08-07T15:48:45;2.10;;;1.60;;
42690;SDS011;28306;55.744;37.578;2022-08-07T15:51:13;2.58;;;1.77;;
42690;SDS011;28306;55.744;37.578;2022-08-07T15:53:42;3.63;;;1.60;;
42690;SDS011;28306;55.744;37.578;2022-08-07T15:56:12;3.00;;;1.80;;
42690;SDS011;28306;55.744;37.578;2022-08-07T16:01:31;3.97;;;1.65;;
42690;SDS011;28306;55.744;37.578;2022-08-07T16:04:01;2.90;;;1.77;;
42690;SDS011;28306;55.744;37.578;2022-08-07T16:06:36;3.63;;;1.77;;
42690;SDS011;28306;55.744;37.578;2022-08-07T16:14:32;3.30;;;1.85;;
42690;SDS011;28306;55.744;37.578;2022-08-07T16:17:14;2.42;;;1.65;;
42690;SDS011;28306;55.744;37.578;2022-08-07T16:19:58;2.67;;;1.65;;
42690;SDS011;28306;55.744;37.578;2022-08-07T16:25:24;2.05;;;1.63;;
42690;SDS011;28306;55.744;37.578;2022-08-07T16:28:20;2.05;;;1.60;;
42690;SDS011;28306;55.744;37.578;2022-08-07T16:31:01;3.42;;;1.60;;
42690;SDS011;28306;55.744;37.578;2022-08-07T16:33:29;4.55;;;1.52;;
42690;SDS011;28306;55.744;37.578;2022-08-07T16:37:03;3.83;;;1.73;;
42690;SDS011;28306;55.744;37.578;2022-08-07T16:38:58;2.83;;;1.70;;
42690;SDS011;28306;55.744;37.578;2022-08-07T16:44:19;2.63;;;1.67;;
42690;SDS011;28306;55.744;37.578;2022-08-07T16:47:04;2.40;;;1.80;;
42690;SDS011;28306;55.744;37.578;2022-08-07T17:00:58;2.22;;;1.70;;
42690;SDS011;28306;55.744;37.578;2022-08-07T17:12:08;2.97;;;1.73;;
42690;SDS011;28306;55.744;37.578;2022-08-07T17:14:52;6.00;;;1.70;;
42690;SDS011;28306;55.744;37.578;2022-08-07T17:19:59;4.50;;;1.85;;
42690;SDS011;28306;55.744;37.578;2022-08-07T17:25:09;2.70;;;1.67;;
42690;SDS011;28306;55.744;37.578;2022-08-07T17:30:11;3.22;;;1.73;;
42690;SDS011;28306;55.744;37.578;2022-08-07T17:35:41;4.07;;;1.70;;
42690;SDS011;28306;55.744;37.578;2022-08-07T17:38:27;2.80;;;1.73;;
42690;SDS011;28306;55.744;37.578;2022-08-07T17:43:37;2.63;;;1.73;;
42690;SDS011;28306;55.744;37.578;2022-08-07T17:51:45;3.10;;;2.10;;
42690;SDS011;28306;55.744;37.578;2022-08-07T17:54:27;2.55;;;1.80;;
42690;SDS011;28306;55.744;37.578;2022-08-07T17:59:55;3.57;;;1.90;;
42690;SDS011;28306;55.744;37.578;2022-08-07T18:08:22;4.20;;;1.65;;
42690;SDS011;28306;55.744;37.578;2022-08-07T18:10:51;2.15;;;1.48;;
42690;SDS011;28306;55.744;37.578;2022-08-07T18:16:05;2.60;;;1.77;;
42690;SDS011;28306;55.744;37.578;2022-08-07T18:18:49;3.40;;;1.73;;
42690;SDS011;28306;55.744;37.578;2022-08-07T18:31:57;4.20;;;1.83;;
42690;SDS011;28306;55.744;37.578;2022-08-07T18:40:26;2.38;;;1.58;;
42690;SDS011;28306;55.744;37.578;2022-08-07T18:42:59;2.88;;;1.90;;
42690;SDS011;28306;55.744;37.578;2022-08-07T18:48:41;3.20;;;2.30;;
42690;SDS011;28306;55.744;37.578;2022-08-07T18:53:49;3.00;;;2.20;;
42690;SDS011;28306;55.744;37.578;2022-08-07T19:05:03;3.35;;;2.55;;
42690;SDS011;28306;55.744;37.578;2022-08-07T19:07:37;4.15;;;2.60;;
42690;SDS011;28306;55.744;37.578;2022-08-07T19:10:12;5.00;;;2.80;;
42690;SDS011;28306;55.744;37.578;2022-08-07T19:12:47;3.60;;;2.67;;